createdAt,value
2018-05-13T00:02:12.730Z,101509.36
2018-05-13T00:05:16.079Z,101499.66
2018-05-13T00:08:19.429Z,101501.31
2018-05-13T00:11:22.746Z,101502.55
2018-05-13T00:14:26.102Z,101517.23
2018-05-13T00:17:29.470Z,101516.23
2018-05-13T00:20:32.833Z,101507.91
2018-05-13T00:23:36.174Z,101501.11
2018-05-13T00:26:40.370Z,101495.55
2018-05-13T00:29:43.711Z,101497.43
2018-05-13T00:32:47.148Z,101491.96
2018-05-13T00:35:50.514Z,101489.92
2018-05-13T00:38:53.958Z,101488.72
2018-05-13T00:41:57.261Z,101489.63
2018-05-13T00:45:00.666Z,101483.59
2018-05-13T00:48:03.989Z,101483.23
2018-05-13T00:51:08.093Z,101475.16
2018-05-13T00:54:29.805Z,101472.98
2018-05-13T00:57:33.148Z,101478.55
2018-05-13T01:00:36.492Z,101471.45
2018-05-13T01:03:39.841Z,101474.36
2018-05-13T01:06:43.177Z,101477.66
2018-05-13T01:09:46.588Z,101480.56
2018-05-13T01:12:49.990Z,101474.77
2018-05-13T01:15:53.339Z,101473.03
2018-05-13T01:18:56.701Z,101471.24
2018-05-13T01:22:00.075Z,101460.70
2018-05-13T01:25:03.406Z,101456.70
2018-05-13T01:28:07.593Z,101454.42
2018-05-13T01:31:10.912Z,101463.08
2018-05-13T01:34:14.277Z,101462.73
2018-05-13T01:37:17.580Z,101465.20
2018-05-13T01:40:20.920Z,101459.93
2018-05-13T01:43:24.997Z,101457.66
2018-05-13T01:46:28.425Z,101464.55
2018-05-13T01:49:32.517Z,101458.52
2018-05-13T01:52:35.914Z,101455.58
2018-05-13T01:55:39.232Z,101456.02
2018-05-13T01:58:42.701Z,101455.59
2018-05-13T02:01:46.030Z,101455.39
2018-05-13T02:04:49.408Z,101459.02
2018-05-13T02:07:52.712Z,101453.41
2018-05-13T02:10:56.114Z,101441.28
2018-05-13T02:13:59.443Z,101443.02
2018-05-13T02:17:03.615Z,101454.23
2018-05-13T02:20:06.929Z,101449.74
2018-05-13T02:23:10.267Z,101446.65
2018-05-13T02:26:13.635Z,101439.11
2018-05-13T02:29:17.752Z,101439.93
2018-05-13T02:32:21.085Z,101439.39
2018-05-13T02:35:24.461Z,101439.30
2018-05-13T02:38:28.648Z,101440.06
2018-05-13T02:41:32.012Z,101437.41
2018-05-13T02:44:35.341Z,101436.09
2018-05-13T02:47:38.695Z,101433.45
2018-05-13T02:50:42.035Z,101428.66
2018-05-13T02:53:45.463Z,101420.89
2018-05-13T02:56:48.834Z,101420.84
2018-05-13T02:59:52.242Z,101415.14
2018-05-13T03:02:55.574Z,101405.16
2018-05-13T03:05:59.031Z,101407.85
2018-05-13T03:09:02.435Z,101403.95
2018-05-13T03:12:05.829Z,101405.88
2018-05-13T03:15:09.137Z,101401.67
2018-05-13T03:18:12.535Z,101408.19
2018-05-13T03:21:15.844Z,101407.81
2018-05-13T03:24:19.187Z,101408.34
2018-05-13T03:27:22.496Z,101408.88
2018-05-13T03:30:25.918Z,101403.31
2018-05-13T03:33:29.237Z,101397.31
2018-05-13T03:36:32.617Z,101403.39
2018-05-13T03:39:35.942Z,101395.23
2018-05-13T03:42:39.304Z,101384.39
2018-05-13T03:45:42.621Z,101396.92
2018-05-13T03:48:46.020Z,101391.22
2018-05-13T03:51:49.422Z,101389.09
2018-05-13T03:54:52.781Z,101388.70
2018-05-13T03:57:56.109Z,101391.44
2018-05-13T04:00:59.505Z,101384.91
2018-05-13T04:04:02.820Z,101390.92
2018-05-13T04:07:06.171Z,101385.44
2018-05-13T04:14:09.978Z,101387.95
2018-05-13T04:17:14.062Z,101386.69
2018-05-13T04:20:17.446Z,101384.08
2018-05-13T04:23:20.769Z,101385.91
2018-05-13T04:26:24.124Z,101395.92
2018-05-13T04:29:27.536Z,101392.91
2018-05-13T04:32:30.884Z,101386.00
2018-05-13T04:35:34.965Z,101386.88
2018-05-13T04:38:38.305Z,101381.34
2018-05-13T04:41:42.430Z,101387.91
2018-05-13T04:44:45.765Z,101382.73
2018-05-13T04:47:49.082Z,101374.06
2018-05-13T04:50:52.435Z,101379.76
2018-05-13T04:53:55.753Z,101372.41
2018-05-13T04:56:59.093Z,101370.78
2018-05-13T05:00:02.400Z,101370.86
2018-05-13T05:03:06.498Z,101362.66
2018-05-13T05:06:09.898Z,101372.75
2018-05-13T05:09:13.274Z,101378.45
2018-05-13T05:12:16.595Z,101382.37
2018-05-13T05:15:19.936Z,101377.25
2018-05-13T05:18:23.258Z,101376.09
2018-05-13T05:21:26.591Z,101384.14
2018-05-13T05:24:29.906Z,101385.14
2018-05-13T05:27:34.097Z,101383.50
2018-05-13T05:30:37.422Z,101384.88
2018-05-13T05:33:41.535Z,101384.03
2018-05-13T05:36:45.614Z,101384.00
2018-05-13T05:39:49.006Z,101375.22
2018-05-13T05:42:52.339Z,101377.44
2018-05-13T05:45:56.448Z,101378.27
2018-05-13T05:48:59.839Z,101382.26
2018-05-13T05:52:03.194Z,101385.30
2018-05-13T05:55:06.504Z,101388.39
2018-05-13T05:58:09.916Z,101386.20
2018-05-13T06:01:13.241Z,101383.31
2018-05-13T06:04:16.620Z,101383.78
2018-05-13T06:07:20.030Z,101377.73
2018-05-13T06:10:23.414Z,101372.48
2018-05-13T06:13:26.734Z,101374.74
2018-05-13T06:16:30.092Z,101368.86
2018-05-13T06:19:33.420Z,101365.94
2018-05-13T06:22:36.774Z,101362.10
2018-05-13T06:25:40.121Z,101362.11
2018-05-13T06:28:43.457Z,101364.77
2018-05-13T06:31:46.781Z,101364.33
2018-05-13T06:47:55.203Z,101368.00
2018-05-13T06:50:58.561Z,101365.42
2018-05-13T06:54:02.686Z,101377.72
2018-05-13T06:57:06.035Z,101375.99
2018-05-13T07:00:09.430Z,101369.46
2018-05-13T07:03:12.785Z,101373.85
2018-05-13T07:06:16.214Z,101371.69
2018-05-13T07:09:19.537Z,101375.16
2018-05-13T07:12:22.926Z,101370.27
2018-05-13T07:15:26.254Z,101369.02
2018-05-13T07:18:30.375Z,101361.59
2018-05-13T07:21:34.563Z,101361.60
2018-05-13T07:24:37.918Z,101364.23
2018-05-13T07:27:41.345Z,101363.34
2018-05-13T07:30:44.766Z,101358.56
2018-05-13T07:33:48.096Z,101353.33
2018-05-13T07:36:51.525Z,101352.05
2018-05-13T07:39:54.904Z,101359.89
2018-05-13T07:42:58.262Z,101348.08
2018-05-13T07:46:02.360Z,101355.02
2018-05-13T07:49:07.236Z,101360.70
2018-05-13T07:52:10.573Z,101363.23
2018-05-13T07:55:13.930Z,101360.17
2018-05-13T07:58:17.272Z,101362.28
2018-05-13T08:01:20.670Z,101360.04
2018-05-13T08:04:24.007Z,101363.36
2018-05-13T08:07:28.190Z,101365.86
2018-05-13T08:10:31.510Z,101360.98
2018-05-13T08:13:36.160Z,101363.48
2018-05-13T08:16:39.501Z,101363.39
2018-05-13T08:19:42.897Z,101360.70
2018-05-13T08:22:46.217Z,101360.29
2018-05-13T08:25:49.604Z,101359.73
2018-05-13T08:28:52.926Z,101359.75
2018-05-13T08:31:57.028Z,101359.88
2018-05-13T08:35:00.417Z,101362.49
2018-05-13T08:38:03.769Z,101362.21
2018-05-13T08:41:07.209Z,101365.80
2018-05-13T08:44:10.553Z,101359.34
2018-05-13T08:47:13.861Z,101360.67
2018-05-13T08:50:17.302Z,101357.11
2018-05-13T08:53:20.625Z,101360.16
2018-05-13T08:56:24.831Z,101357.59
2018-05-13T08:59:28.921Z,101354.72
2018-05-13T09:02:32.350Z,101359.03
2018-05-13T09:05:36.459Z,101353.86
2018-05-13T09:08:39.838Z,101359.10
2018-05-13T09:11:43.149Z,101350.91
2018-05-13T09:14:46.545Z,101356.50
2018-05-13T09:17:49.933Z,101358.78
2018-05-13T09:20:53.327Z,101359.29
2018-05-13T09:23:56.629Z,101360.23
2018-05-13T09:27:01.553Z,101351.16
2018-05-13T09:30:04.875Z,101359.13
2018-05-13T09:33:08.355Z,101356.48
2018-05-13T09:36:12.365Z,101353.03
2018-05-13T09:39:15.767Z,101359.00
2018-05-13T09:42:19.111Z,101353.27
2018-05-13T09:45:23.361Z,101354.23
2018-05-13T09:48:26.778Z,101360.34
2018-05-13T09:51:30.133Z,101354.27
2018-05-13T09:54:33.495Z,101362.61
2018-05-13T09:57:36.903Z,101364.70
2018-05-13T10:00:40.280Z,101367.70
2018-05-13T10:03:44.432Z,101365.98
2018-05-13T10:06:47.800Z,101360.25
2018-05-13T10:09:51.201Z,101350.70
2018-05-13T10:12:54.591Z,101352.92
2018-05-13T10:15:58.392Z,101352.20
2018-05-13T10:19:01.806Z,101353.11
2018-05-13T10:22:05.206Z,101353.24
2018-05-13T10:25:08.643Z,101358.48
2018-05-13T10:28:11.973Z,101354.03
2018-05-13T10:31:15.402Z,101346.15
2018-05-13T10:34:18.801Z,101343.64
2018-05-13T10:37:22.750Z,101341.02
2018-05-13T10:40:26.116Z,101337.46
2018-05-13T10:43:29.445Z,101337.03
2018-05-13T10:46:33.571Z,101336.62
2018-05-13T10:49:36.904Z,101343.17
2018-05-13T10:52:40.273Z,101341.05
2018-05-13T10:55:43.601Z,101338.08
2018-05-13T10:58:47.008Z,101335.59
2018-05-13T11:01:50.368Z,101328.18
2018-05-13T11:04:53.798Z,101338.69
2018-05-13T11:07:57.921Z,101325.13
2018-05-13T11:11:01.285Z,101325.98
2018-05-13T11:14:04.621Z,101324.64
2018-05-13T11:17:08.051Z,101322.87
2018-05-13T11:20:12.167Z,101322.45
2018-05-13T11:23:16.374Z,101317.97
2018-05-13T11:26:19.705Z,101313.55
2018-05-13T11:29:23.196Z,101312.63
2018-05-13T11:32:27.374Z,101305.09
2018-05-13T11:35:30.760Z,101304.11
2018-05-13T11:38:34.178Z,101300.98
2018-05-13T11:41:37.526Z,101295.75
2018-05-13T11:44:40.879Z,101296.59
2018-05-13T11:47:44.322Z,101293.07
2018-05-13T11:50:47.646Z,101296.56
2018-05-13T11:53:51.004Z,101298.70
2018-05-13T11:56:55.186Z,101299.46
2018-05-13T11:59:59.411Z,101294.53
2018-05-13T12:03:02.790Z,101298.67
2018-05-13T12:06:06.215Z,101293.70
2018-05-13T12:09:09.608Z,101293.47
2018-05-13T12:12:13.814Z,101289.91
2018-05-13T12:15:17.220Z,101292.59
2018-05-13T12:18:20.548Z,101291.81
2018-05-13T12:21:24.713Z,101290.84
2018-05-13T12:24:28.130Z,101294.20
2018-05-13T12:27:31.541Z,101289.67
2018-05-13T12:30:35.747Z,101290.95
2018-05-13T12:33:39.093Z,101287.28
2018-05-13T12:36:42.439Z,101284.92
2018-05-13T12:39:45.762Z,101284.08
2018-05-13T12:42:49.957Z,101278.30
2018-05-13T12:45:53.337Z,101279.62
2018-05-13T12:48:56.799Z,101271.48
2018-05-13T12:52:00.124Z,101276.55
2018-05-13T12:55:03.483Z,101272.81
2018-05-13T12:58:06.825Z,101276.13
2018-05-13T13:01:10.182Z,101283.02
2018-05-13T13:04:13.531Z,101268.81
2018-05-13T13:07:16.935Z,101271.49
2018-05-13T13:10:20.750Z,101269.86
2018-05-13T13:13:24.186Z,101267.66
2018-05-13T13:16:27.523Z,101267.89
2018-05-13T13:19:30.872Z,101263.72
2018-05-13T13:22:34.222Z,101266.54
2018-05-13T13:25:37.570Z,101263.84
2018-05-13T13:28:40.892Z,101261.22
2018-05-13T13:31:44.250Z,101262.90
2018-05-13T13:34:48.342Z,101257.74
2018-05-13T13:37:53.257Z,101257.28
2018-05-13T13:40:56.596Z,101253.68
2018-05-13T13:44:00.780Z,101246.20
2018-05-13T13:47:04.101Z,101257.78
2018-05-13T13:50:08.243Z,101248.50
2018-05-13T13:53:11.560Z,101243.05
2018-05-13T13:56:14.948Z,101243.11
2018-05-13T13:59:18.903Z,101237.11
2018-05-13T14:02:22.241Z,101238.73
2018-05-13T14:05:25.581Z,101236.05
2018-05-13T14:08:29.003Z,101236.65
2018-05-13T14:11:32.388Z,101240.81
2018-05-13T14:14:36.507Z,101234.20
2018-05-13T14:17:39.897Z,101229.30
2018-05-13T14:20:43.348Z,101230.48
2018-05-13T14:23:46.592Z,101225.42
2018-05-13T14:26:50.354Z,101221.31
2018-05-13T14:29:53.789Z,101218.72
2018-05-13T14:32:57.760Z,101220.97
2018-05-13T14:36:01.855Z,101213.88
2018-05-13T14:39:12.124Z,101213.73
2018-05-13T14:42:10.146Z,101213.45
2018-05-13T14:45:13.507Z,101211.70
2018-05-13T14:48:16.950Z,101213.79
2018-05-13T14:51:20.341Z,101219.53
2018-05-13T14:54:23.659Z,101210.69
2018-05-13T14:57:27.009Z,101212.75
2018-05-13T15:00:30.333Z,101208.48
2018-05-13T15:03:33.725Z,101207.59
2018-05-13T15:06:37.041Z,101205.16
2018-05-13T15:09:40.394Z,101206.55
2018-05-13T15:12:43.834Z,101203.20
2018-05-13T15:15:47.189Z,101197.52
2018-05-13T15:18:50.578Z,101201.34
2018-05-13T15:21:54.035Z,101201.33
2018-05-13T15:24:57.424Z,101201.68
2018-05-13T15:28:00.819Z,101204.38
2018-05-13T15:31:04.142Z,101195.81
2018-05-13T15:34:08.316Z,101199.16
2018-05-13T15:37:11.753Z,101200.99
2018-05-13T15:40:15.035Z,101193.95
2018-05-13T15:43:18.508Z,101188.42
2018-05-13T15:46:21.809Z,101199.56
2018-05-13T15:49:25.199Z,101196.61
2018-05-13T15:52:28.542Z,101191.70
2018-05-13T15:55:32.605Z,101193.99
2018-05-13T15:58:35.959Z,101192.66
2018-05-13T16:01:39.281Z,101191.00
2018-05-13T16:04:42.629Z,101182.77
2018-05-13T16:07:46.003Z,101186.97
2018-05-13T16:10:49.353Z,101192.45
2018-05-13T16:13:52.698Z,101189.19
2018-05-13T16:16:56.104Z,101186.56
2018-05-13T16:19:59.543Z,101180.70
2018-05-13T16:23:02.947Z,101179.59
2018-05-13T16:26:06.268Z,101180.53
2018-05-13T16:29:09.674Z,101178.05
2018-05-13T16:32:13.073Z,101180.55
2018-05-13T16:35:16.476Z,101179.33
2018-05-13T16:38:19.888Z,101178.36
2018-05-13T16:41:23.227Z,101184.50
2018-05-13T16:44:26.591Z,101187.02
2018-05-13T16:47:29.962Z,101180.20
2018-05-13T16:50:33.369Z,101178.77
2018-05-13T16:53:36.712Z,101179.45
2018-05-13T16:56:40.060Z,101186.66
2018-05-13T16:59:43.479Z,101189.23
2018-05-13T17:02:47.673Z,101183.48
2018-05-13T17:05:51.027Z,101183.47
2018-05-13T17:08:54.371Z,101189.49
2018-05-13T17:11:57.787Z,101187.40
2018-05-13T17:15:01.870Z,101184.80
2018-05-13T17:18:05.266Z,101187.88
2018-05-13T17:21:08.674Z,101183.09
2018-05-13T17:24:12.034Z,101195.22
2018-05-13T17:27:15.362Z,101184.16
2018-05-13T17:30:18.715Z,101192.43
2018-05-13T17:33:22.050Z,101193.96
2018-05-13T17:36:25.407Z,101192.00
2018-05-13T17:39:28.847Z,101198.38
2018-05-13T17:42:32.978Z,101205.16
2018-05-13T17:45:36.326Z,101206.59
2018-05-13T17:48:39.671Z,101208.03
2018-05-13T17:51:43.070Z,101212.09
2018-05-13T17:54:46.411Z,101213.48
2018-05-13T17:57:49.734Z,101217.08
2018-05-13T18:00:53.100Z,101210.55
2018-05-13T18:03:56.431Z,101215.47
2018-05-13T18:06:59.823Z,101213.83
2018-05-13T18:10:03.863Z,101218.31
2018-05-13T18:13:07.236Z,101225.42
2018-05-13T18:16:10.564Z,101229.05
2018-05-13T18:19:14.678Z,101235.67
2018-05-13T18:22:18.055Z,101229.09
2018-05-13T18:25:21.449Z,101232.22
2018-05-13T18:28:24.772Z,101236.66
2018-05-13T18:31:28.133Z,101233.22
2018-05-13T18:34:31.465Z,101233.69
2018-05-13T18:37:34.849Z,101230.66
2018-05-13T18:40:38.170Z,101235.08
2018-05-13T18:43:42.357Z,101236.41
2018-05-13T18:46:45.761Z,101239.94
2018-05-13T18:49:49.122Z,101236.91
2018-05-13T18:52:52.438Z,101240.44
2018-05-13T18:55:55.794Z,101238.25
2018-05-13T18:58:59.204Z,101241.80
2018-05-13T19:02:02.518Z,101251.88
2018-05-13T19:05:05.844Z,101248.40
2018-05-13T19:08:09.176Z,101244.50
2018-05-13T19:11:12.502Z,101251.98
2018-05-13T19:14:15.858Z,101259.86
2018-05-13T19:17:19.929Z,101258.13
2018-05-13T19:20:23.342Z,101267.77
2018-05-13T19:23:26.671Z,101269.97
2018-05-13T19:26:30.139Z,101275.22
2018-05-13T19:29:33.465Z,101277.84
2018-05-13T19:32:37.615Z,101282.21
2018-05-13T19:35:41.040Z,101287.91
2018-05-13T19:38:44.426Z,101289.23
2018-05-13T19:41:47.756Z,101284.40
2018-05-13T19:44:51.874Z,101285.73
2018-05-13T19:47:56.064Z,101291.40
2018-05-13T19:50:59.457Z,101296.16
2018-05-13T19:54:02.776Z,101296.17
2018-05-13T19:57:06.922Z,101299.64
2018-05-13T20:00:10.302Z,101299.64
2018-05-13T20:03:14.547Z,101298.75
2018-05-13T20:06:17.774Z,101296.12
2018-05-13T20:09:21.266Z,101298.71
2018-05-13T20:12:24.573Z,101305.72
2018-05-13T20:15:28.085Z,101307.44
2018-05-13T20:18:32.187Z,101311.81
2018-05-13T20:21:35.604Z,101315.27
2018-05-13T20:24:38.913Z,101307.36
2018-05-13T20:27:43.023Z,101313.92
2018-05-13T20:30:47.223Z,101310.84
2018-05-13T20:33:50.614Z,101308.63
2018-05-13T20:36:54.014Z,101306.02
2018-05-13T20:39:58.232Z,101307.27
2018-05-13T20:43:01.559Z,101310.30
2018-05-13T20:46:05.734Z,101319.89
2018-05-13T20:49:09.059Z,101319.86
2018-05-13T20:52:13.184Z,101320.30
2018-05-13T20:55:17.278Z,101322.90
2018-05-13T20:58:20.653Z,101328.06
2018-05-13T21:01:24.079Z,101323.67
2018-05-13T21:04:27.467Z,101328.91
2018-05-13T21:07:30.778Z,101327.55
2018-05-13T21:10:34.966Z,101329.71
2018-05-13T21:13:38.285Z,101327.47
2018-05-13T21:16:42.424Z,101330.51
2018-05-13T21:19:45.764Z,101333.98
2018-05-13T21:22:49.107Z,101335.25
2018-05-13T21:25:53.298Z,101331.26
2018-05-13T21:28:56.676Z,101332.50
2018-05-13T21:32:00.077Z,101331.20
2018-05-13T21:35:03.430Z,101327.25
2018-05-13T21:38:06.762Z,101323.77
2018-05-13T21:41:10.109Z,101330.70
2018-05-13T21:44:14.280Z,101333.31
2018-05-13T21:47:17.642Z,101330.67
2018-05-13T21:50:20.985Z,101335.06
2018-05-13T21:53:24.322Z,101335.50
2018-05-13T21:56:27.639Z,101337.63
2018-05-13T21:59:31.108Z,101339.35
2018-05-13T22:02:35.190Z,101341.05
2018-05-13T22:05:38.763Z,101340.56
2018-05-13T22:08:42.103Z,101340.05
2018-05-13T22:11:45.761Z,101340.95
2018-05-13T22:14:49.267Z,101347.85
2018-05-13T22:17:53.259Z,101343.95
2018-05-13T22:20:56.751Z,101341.66
2018-05-13T22:24:00.969Z,101344.23
2018-05-13T22:27:04.585Z,101345.48
2018-05-13T22:30:08.412Z,101344.15
2018-05-13T22:33:11.842Z,101350.25
2018-05-13T22:36:15.204Z,101343.71
2018-05-13T22:39:18.678Z,101348.05
2018-05-13T22:42:22.040Z,101348.91
2018-05-13T22:45:25.429Z,101345.86
2018-05-13T22:48:29.035Z,101347.20
2018-05-13T22:51:32.431Z,101343.22
2018-05-13T22:54:35.789Z,101344.99
2018-05-13T22:57:39.100Z,101342.41
2018-05-13T23:00:42.498Z,101341.50
2018-05-13T23:03:45.901Z,101338.42
2018-05-13T23:06:49.195Z,101338.42
2018-05-13T23:09:52.595Z,101326.16
2018-05-13T23:12:56.096Z,101333.55
2018-05-13T23:15:59.484Z,101323.45
2018-05-13T23:19:02.834Z,101330.81
2018-05-13T23:22:06.177Z,101341.23
2018-05-13T23:25:09.521Z,101335.51
2018-05-13T23:28:13.589Z,101330.69
2018-05-13T23:31:16.929Z,101327.64
2018-05-13T23:34:21.005Z,101328.45
2018-05-13T23:37:24.353Z,101328.84
2018-05-13T23:40:27.706Z,101326.61
2018-05-13T23:43:31.102Z,101326.23
2018-05-13T23:46:34.368Z,101332.73
2018-05-13T23:49:37.777Z,101331.40
2018-05-13T23:52:41.174Z,101334.88
2018-05-13T23:55:44.573Z,101330.90
2018-05-13T23:58:47.894Z,101329.09
